| time (UTC) | temp F | wind direction | speed knots | gust knots | rain 1hr in | rain 24hr in | rain mn in | humidity % | barometer mb |
| 20260510230649 | 82 | 327 | 4.3 | 5.2 | 0.00 | 0.00 | 0.00 | 86 | 1013.9 |
| 20260510230144 | 82 | 303 | 1.7 | 1.7 | 0.00 | 0.00 | 0.00 | 86 | 1013.9 |
| 20260510225641 | 82 | 285 | 0.9 | 0.9 | 0.00 | 0.00 | 0.00 | 86 | 1013.8 |
| 20260510225137 | 82 | 274 | 0.9 | 0.9 | 0.00 | 0.00 | 0.00 | 86 | 1013.8 |
| 20260510224633 | 82 | 270 | 0.9 | 0.9 | 0.00 | 0.00 | 0.00 | 85 | 1013.7 |
| 20260510224130 | 82 | 272 | 0.9 | 1.7 | 0.00 | 0.00 | 0.00 | 85 | 1013.7 |
| 20260510223627 | 82 | 284 | 1.7 | 1.7 | 0.00 | 0.00 | 0.00 | 84 | 1013.7 |
| 20260510223124 | 83 | 269 | 0.9 | 0.9 | 0.00 | 0.00 | 0.00 | 84 | 1013.6 |
| 20260510222621 | 83 | 282 | 0.0 | 0.0 | 0.00 | 0.00 | 0.00 | 84 | 1013.7 |
| 20260510222119 | 83 | 268 | 0.9 | 0.9 | 0.00 | 0.00 | 0.00 | 84 | 1013.5 |
| 20260510221619 | 83 | 270 | 0.0 | 0.9 | 0.00 | 0.00 | 0.00 | 84 | 1013.6 |
| 20260510221115 | 83 | 319 | 1.7 | 1.7 | 0.00 | 0.00 | 0.00 | 84 | 1013.8 |
| 20260510220612 | 83 | 267 | 0.9 | 0.9 | 0.00 | 0.00 | 0.00 | 83 | 1013.8 |
| 20260510220108 | 83 | 291 | 1.7 | 2.6 | 0.00 | 0.00 | 0.00 | 83 | 1013.9 |
| 20260510215606 | 83 | 269 | 0.9 | 0.9 | 0.00 | 0.00 | 0.00 | 83 | 1013.8 |
| 20260510215104 | 84 | 274 | 0.9 | 0.9 | 0.00 | 0.00 | 0.00 | 83 | 1013.9 |
| 20260510214600 | 84 | 264 | 0.9 | 0.9 | 0.00 | 0.00 | 0.00 | 82 | 1013.8 |
| 20260510214056 | 84 | 281 | 0.9 | 0.9 | 0.00 | 0.00 | 0.00 | 81 | 1013.7 |
| 20260510213553 | 84 | 257 | 0.9 | 0.9 | 0.00 | 0.00 | 0.00 | 82 | 1013.8 |
| 20260510213049 | 84 | 253 | 2.6 | 2.6 | 0.00 | 0.00 | 0.00 | 81 | 1013.6 |
| 20260510212546 | 84 | 274 | 1.7 | 1.7 | 0.00 | 0.00 | 0.00 | 82 | 1014.0 |
| 20260510212044 | 84 | 270 | 1.7 | 1.7 | 0.00 | 0.00 | 0.00 | 82 | 1013.9 |
| 20260510211540 | 84 | 275 | 0.9 | 0.9 | 0.00 | 0.00 | 0.00 | 82 | 1013.9 |
| 20260510211040 | 84 | 273 | 1.7 | 1.7 | 0.00 | 0.00 | 0.00 | 82 | 1013.8 |
| 20260510210537 | 84 | 264 | 0.9 | 0.9 | 0.00 | 0.00 | 0.00 | 82 | 1014.0 |
| 20260510210032 | 84 | 279 | 0.0 | 0.9 | 0.00 | 0.00 | 0.00 | 82 | 1014.1 |
| 20260510205531 | 84 | 283 | 0.0 | 0.9 | 0.00 | 0.00 | 0.00 | 82 | 1014.0 |
| 20260510205027 | 84 | 259 | 1.7 | 4.3 | 0.00 | 0.00 | 0.00 | 81 | 1014.0 |
| 20260510204524 | 84 | 270 | 0.0 | 0.9 | 0.00 | 0.00 | 0.00 | 82 | 1014.0 |
| 20260510204021 | 84 | 267 | 0.9 | 1.7 | 0.00 | 0.00 | 0.00 | 81 | 1014.0 |
| 20260510203518 | 85 | 256 | 2.6 | 4.3 | 0.00 | 0.00 | 0.00 | 80 | 1013.9 |
| 20260510203014 | 84 | 313 | 1.7 | 1.7 | 0.00 | 0.00 | 0.00 | 82 | 1014.2 |
| 20260510202508 | 84 | 303 | 2.6 | 2.6 | 0.00 | 0.00 | 0.00 | 81 | 1014.1 |
| 20260510202005 | 84 | 277 | 2.6 | 2.6 | 0.00 | 0.00 | 0.00 | 82 | 1014.1 |
| 20260510201503 | 85 | 287 | 1.7 | 1.7 | 0.00 | 0.00 | 0.00 | 80 | 1014.0 |
| 20260510200959 | 86 | 332 | 2.6 | 2.6 | 0.00 | 0.00 | 0.00 | 79 | 1014.0 |
| 20260510200454 | 86 | 276 | 1.7 | 2.6 | 0.00 | 0.00 | 0.00 | 79 | 1013.9 |
| 20260510195947 | 85 | 276 | 2.6 | 2.6 | 0.00 | 0.00 | 0.00 | 80 | 1013.9 |
| 20260510195444 | 85 | 284 | 0.9 | 0.9 | 0.00 | 0.00 | 0.00 | 80 | 1013.8 |
| 20260510194939 | 85 | 299 | 0.9 | 0.9 | 0.00 | 0.00 | 0.00 | 79 | 1014.2 |
| 20260510194436 | 86 | 307 | 1.7 | 2.6 | 0.00 | 0.00 | 0.00 | 78 | 1013.9 |
| 20260510193931 | 87 | 270 | 0.9 | 0.9 | 0.00 | 0.00 | 0.00 | 77 | 1014.1 |
| 20260510193427 | 86 | 306 | 0.9 | 0.9 | 0.00 | 0.00 | 0.00 | 77 | 1014.2 |
| 20260510192922 | 86 | 280 | 0.9 | 1.7 | 0.00 | 0.00 | 0.00 | 78 | 1014.4 |
| 20260510192418 | 85 | 12 | 0.9 | 0.9 | 0.00 | 0.00 | 0.00 | 79 | 1014.3 |
| 20260510191914 | 86 | 250 | 2.6 | 2.6 | 0.00 | 0.00 | 0.00 | 78 | 1014.0 |
| 20260510191410 | 86 | 314 | 3.5 | 4.3 | 0.00 | 0.00 | 0.00 | 79 | 1014.1 |
| 20260510190907 | 87 | 285 | 0.9 | 0.9 | 0.00 | 0.00 | 0.00 | 78 | 1014.1 |
| 20260510190405 | 87 | 257 | 1.7 | 1.7 | 0.00 | 0.00 | 0.00 | 77 | 1014.3 |
| 20260510185901 | 87 | 285 | 0.9 | 1.7 | 0.00 | 0.00 | 0.00 | 77 | 1014.1 |
| 20260510185359 | 86 | 196 | 4.3 | 6.1 | 0.00 | 0.00 | 0.00 | 77 | 1014.2 |
| 20260510184856 | 89 | 295 | 2.6 | 2.6 | 0.00 | 0.00 | 0.00 | 74 | 1014.4 |
| 20260510184353 | 88 | 290 | 1.7 | 1.7 | 0.00 | 0.00 | 0.00 | 74 | 1014.4 |
| 20260510183852 | 87 | 279 | 2.6 | 5.2 | 0.00 | 0.00 | 0.00 | 74 | 1014.4 |
| 20260510183349 | 87 | 245 | 0.9 | 1.7 | 0.00 | 0.00 | 0.00 | 74 | 1014.2 |
| 20260510182844 | 88 | 264 | 0.9 | 1.7 | 0.00 | 0.00 | 0.00 | 72 | 1014.4 |
| 20260510182341 | 87 | 226 | 2.6 | 2.6 | 0.00 | 0.00 | 0.00 | 72 | 1014.4 |
| 20260510181836 | 88 | 243 | 1.7 | 2.6 | 0.00 | 0.00 | 0.00 | 71 | 1014.5 |
| 20260510181334 | 88 | 283 | 0.9 | 0.9 | 0.00 | 0.00 | 0.00 | 70 | 1014.5 |
| 20260510180830 | 88 | 266 | 1.7 | 2.6 | 0.00 | 0.00 | 0.00 | 71 | 1014.5 |
| 20260510180327 | 88 | 282 | 1.7 | 1.7 | 0.00 | 0.00 | 0.00 | 73 | 1014.6 |
| 20260510175824 | 88 | 290 | 3.5 | 5.2 | 0.00 | 0.00 | 0.00 | 71 | 1014.6 |
| 20260510175320 | 89 | 268 | 1.7 | 1.7 | 0.00 | 0.00 | 0.00 | 71 | 1014.5 |
| 20260510174816 | 89 | 250 | 5.2 | 7.8 | 0.00 | 0.00 | 0.00 | 70 | 1014.5 |
| 20260510174314 | 88 | 268 | 2.6 | 2.6 | 0.00 | 0.00 | 0.00 | 73 | 1014.7 |
| 20260510173810 | 88 | 303 | 2.6 | 4.3 | 0.00 | 0.00 | 0.00 | 74 | 1014.8 |
| 20260510173306 | 87 | 262 | 2.6 | 4.3 | 0.00 | 0.00 | 0.00 | 75 | 1014.7 |
| 20260510172802 | 86 | 274 | 0.9 | 0.9 | 0.00 | 0.00 | 0.00 | 75 | 1014.7 |
| 20260510172258 | 87 | 27 | 0.9 | 0.9 | 0.00 | 0.00 | 0.00 | 76 | 1014.8 |
| 20260510171755 | 88 | 230 | 2.6 | 5.2 | 0.00 | 0.00 | 0.00 | 71 | 1014.6 |
| 20260510171252 | 89 | 227 | 1.7 | 1.7 | 0.00 | 0.00 | 0.00 | 71 | 1015.0 |
| 20260510170749 | 88 | 286 | 1.7 | 1.7 | 0.00 | 0.00 | 0.00 | 71 | 1014.8 |
| 20260510170245 | 88 | 287 | 2.6 | 4.3 | 0.00 | 0.00 | 0.00 | 72 | 1015.0 |
| 20260510165741 | 89 | 293 | 0.9 | 1.7 | 0.00 | 0.00 | 0.00 | 72 | 1014.9 |
| 20260510165237 | 88 | 263 | 0.9 | 0.9 | 0.00 | 0.00 | 0.00 | 75 | 1014.9 |
| 20260510164734 | 89 | 235 | 2.6 | 2.6 | 0.00 | 0.00 | 0.00 | 74 | 1015.1 |
| 20260510164232 | 87 | 267 | 0.9 | 0.9 | 0.00 | 0.00 | 0.00 | 76 | 1014.9 |
| 20260510163732 | 88 | 253 | 1.7 | 2.6 | 0.00 | 0.00 | 0.00 | 76 | 1014.9 |
| 20260510163228 | 87 | 327 | 0.9 | 0.9 | 0.00 | 0.00 | 0.00 | 77 | 1014.8 |
| 20260510162727 | 87 | 296 | 4.3 | 6.1 | 0.00 | 0.00 | 0.00 | 77 | 1015.0 |
| 20260510162225 | 87 | 240 | 2.6 | 2.6 | 0.00 | 0.00 | 0.00 | 76 | 1014.8 |
| 20260510161720 | 87 | 296 | 0.9 | 0.9 | 0.00 | 0.00 | 0.00 | 78 | 1014.7 |
| 20260510161217 | 87 | 244 | 1.7 | 1.7 | 0.00 | 0.00 | 0.00 | 77 | 1014.8 |
| 20260510160714 | 87 | 235 | 3.5 | 6.1 | 0.00 | 0.00 | 0.00 | 76 | 1014.8 |
| 20260510160209 | 89 | 227 | 0.0 | 0.0 | 0.00 | 0.00 | 0.00 | 75 | 1014.9 |
| 20260510155705 | 88 | 234 | 2.6 | 7.0 | 0.00 | 0.00 | 0.00 | 76 | 1014.8 |
| 20260510155201 | 88 | 270 | 3.5 | 6.1 | 0.00 | 0.00 | 0.00 | 75 | 1014.8 |
| 20260510154657 | 87 | 286 | 0.9 | 0.9 | 0.00 | 0.00 | 0.00 | 76 | 1015.0 |
| 20260510154153 | 87 | 267 | 1.7 | 2.6 | 0.00 | 0.00 | 0.00 | 77 | 1015.1 |
| 20260510153648 | 88 | 290 | 2.6 | 2.6 | 0.00 | 0.00 | 0.00 | 76 | 1014.8 |
| 20260510153145 | 87 | 320 | 2.6 | 2.6 | 0.00 | 0.00 | 0.00 | 76 | 1014.9 |
| 20260510152642 | 86 | 246 | 0.9 | 0.9 | 0.00 | 0.00 | 0.00 | 79 | 1014.9 |
| 20260510152138 | 87 | 284 | 4.3 | 6.1 | 0.00 | 0.00 | 0.00 | 76 | 1014.8 |
| 20260510151634 | 88 | 271 | 1.7 | 2.6 | 0.00 | 0.00 | 0.00 | 75 | 1014.8 |
| 20260510151133 | 87 | 303 | 4.3 | 6.1 | 0.00 | 0.00 | 0.00 | 78 | 1014.7 |
| 20260510150628 | 87 | 246 | 2.6 | 5.2 | 0.00 | 0.00 | 0.00 | 78 | 1014.7 |
| 20260510150124 | 87 | 287 | 2.6 | 4.3 | 0.00 | 0.00 | 0.00 | 77 | 1015.0 |
| 20260510145621 | 88 | 254 | 1.7 | 1.7 | 0.00 | 0.00 | 0.00 | 77 | 1014.8 |
| 20260510145118 | 87 | 280 | 0.9 | 0.9 | 0.00 | 0.00 | 0.00 | 76 | 1014.6 |
| 20260510144613 | 87 | 277 | 2.6 | 4.3 | 0.00 | 0.00 | 0.00 | 75 | 1014.8 |
| 20260510144109 | 87 | 182 | 1.7 | 2.6 | 0.00 | 0.00 | 0.00 | 74 | 1014.9 |
| 20260510143605 | 87 | 186 | 1.7 | 2.6 | 0.00 | 0.00 | 0.00 | 74 | 1014.8 |
| 20260510143102 | 87 | 219 | 0.9 | 0.9 | 0.00 | 0.00 | 0.00 | 74 | 1014.9 |
| 20260510142559 | 87 | 272 | 0.9 | 1.7 | 0.00 | 0.00 | 0.00 | 73 | 1014.7 |
| 20260510142055 | 88 | 264 | 0.9 | 0.9 | 0.00 | 0.00 | 0.00 | 73 | 1014.9 |
| 20260510141552 | 87 | 268 | 0.0 | 0.0 | 0.00 | 0.00 | 0.00 | 72 | 1014.7 |
| 20260510141050 | 87 | 199 | 4.3 | 6.1 | 0.00 | 0.00 | 0.00 | 73 | 1014.9 |
| 20260510140546 | 86 | 273 | 0.0 | 0.0 | 0.00 | 0.00 | 0.00 | 74 | 1014.9 |
| 20260510140045 | 86 | 217 | 1.7 | 1.7 | 0.00 | 0.00 | 0.00 | 74 | 1014.5 |
| 20260510135541 | 86 | 245 | 0.9 | 1.7 | 0.00 | 0.00 | 0.00 | 75 | 1014.5 |
| 20260510135038 | 84 | 276 | 1.7 | 2.6 | 0.00 | 0.00 | 0.00 | 77 | 1014.5 |
| 20260510134535 | 84 | 255 | 0.9 | 1.7 | 0.00 | 0.00 | 0.00 | 78 | 1014.4 |
| 20260510134032 | 85 | 194 | 2.6 | 4.3 | 0.00 | 0.00 | 0.00 | 77 | 1014.1 |
| 20260510133527 | 84 | 193 | 2.6 | 2.6 | 0.00 | 0.00 | 0.00 | 78 | 1014.3 |
| 20260510133024 | 85 | 174 | 0.9 | 0.9 | 0.00 | 0.00 | 0.00 | 79 | 1014.0 |
| 20260510132521 | 84 | 7 | 0.9 | 1.7 | 0.00 | 0.00 | 0.00 | 79 | 1014.1 |
| 20260510132017 | 84 | 219 | 1.7 | 2.6 | 0.00 | 0.00 | 0.00 | 79 | 1014.3 |
| 20260510131515 | 84 | 242 | 1.7 | 2.6 | 0.00 | 0.00 | 0.00 | 79 | 1014.3 |
| 20260510131012 | 84 | 187 | 0.9 | 1.7 | 0.00 | 0.00 | 0.00 | 80 | 1014.3 |
| 20260510130508 | 82 | 216 | 2.6 | 4.3 | 0.00 | 0.00 | 0.00 | 82 | 1014.3 |
| 20260510130006 | 82 | 181 | 2.6 | 2.6 | 0.00 | 0.00 | 0.00 | 82 | 1014.1 |
| 20260510125502 | 82 | 144 | 2.6 | 4.3 | 0.00 | 0.00 | 0.00 | 83 | 1014.1 |
| 20260510124959 | 81 | 185 | 1.7 | 1.7 | 0.00 | 0.00 | 0.00 | 84 | 1013.9 |
| 20260510124455 | 81 | 151 | 2.6 | 2.6 | 0.00 | 0.00 | 0.00 | 85 | 1014.1 |
| 20260510123952 | 81 | 249 | 2.6 | 4.3 | 0.00 | 0.00 | 0.00 | 84 | 1013.9 |
| 20260510123447 | 81 | 164 | 2.6 | 2.6 | 0.00 | 0.00 | 0.00 | 85 | 1014.0 |
| 20260510122943 | 80 | 225 | 2.6 | 2.6 | 0.00 | 0.00 | 0.00 | 85 | 1013.9 |
| 20260510122439 | 80 | 141 | 2.6 | 4.3 | 0.00 | 0.00 | 0.00 | 85 | 1013.9 |
| 20260510121936 | 80 | 139 | 3.5 | 4.3 | 0.00 | 0.00 | 0.00 | 86 | 1013.9 |
| 20260510121433 | 79 | 225 | 0.9 | 1.7 | 0.00 | 0.00 | 0.00 | 88 | 1013.9 |
| 20260510120931 | 78 | 237 | 1.7 | 1.7 | 0.00 | 0.00 | 0.00 | 88 | 1013.8 |
| 20260510120427 | 78 | 177 | 2.6 | 2.6 | 0.00 | 0.00 | 0.00 | 88 | 1013.7 |
| 20260510115923 | 78 | 173 | 2.6 | 2.6 | 0.00 | 0.00 | 0.00 | 89 | 1013.8 |
| 20260510115420 | 78 | 248 | 1.7 | 1.7 | 0.00 | 0.00 | 0.00 | 89 | 1013.6 |
| 20260510114915 | 78 | 189 | 1.7 | 2.6 | 0.00 | 0.00 | 0.00 | 89 | 1013.7 |
| 20260510114413 | 78 | 202 | 1.7 | 1.7 | 0.00 | 0.00 | 0.00 | 90 | 1013.5 |
| 20260510113908 | 78 | 214 | 2.6 | 2.6 | 0.00 | 0.00 | 0.00 | 90 | 1013.5 |
| 20260510113404 | 77 | 181 | 2.6 | 4.3 | 0.00 | 0.00 | 0.00 | 90 | 1013.3 |
| 20260510112901 | 77 | 198 | 1.7 | 1.7 | 0.00 | 0.00 | 0.00 | 91 | 1013.2 |
| 20260510112358 | 77 | 178 | 1.7 | 1.7 | 0.00 | 0.00 | 0.00 | 91 | 1013.1 |
| 20260510111854 | 77 | 198 | 1.7 | 1.7 | 0.00 | 0.00 | 0.00 | 91 | 1012.9 |
| 20260510111351 | 77 | 224 | 0.9 | 1.7 | 0.00 | 0.00 | 0.00 | 91 | 1013.0 |
| 20260510110846 | 77 | 159 | 2.6 | 5.2 | 0.00 | 0.00 | 0.00 | 91 | 1013.0 |
| 20260510110343 | 77 | 178 | 0.9 | 0.9 | 0.00 | 0.00 | 0.00 | 91 | 1012.8 |
| 20260510105839 | 77 | 160 | 2.6 | 2.6 | 0.00 | 0.00 | 0.00 | 91 | 1012.8 |
| 20260510105339 | 77 | 217 | 2.6 | 2.6 | 0.00 | 0.00 | 0.00 | 91 | 1013.0 |
| 20260510104835 | 77 | 221 | 0.9 | 1.7 | 0.00 | 0.00 | 0.00 | 91 | 1013.0 |
| 20260510104332 | 77 | 188 | 2.6 | 2.6 | 0.00 | 0.00 | 0.00 | 91 | 1012.8 |
| 20260510103828 | 77 | 94 | 3.5 | 4.3 | 0.00 | 0.00 | 0.00 | 91 | 1012.4 |
| 20260510103325 | 77 | 102 | 0.9 | 1.7 | 0.00 | 0.00 | 0.00 | 91 | 1012.5 |
| 20260510102821 | 77 | 238 | 0.9 | 0.9 | 0.00 | 0.00 | 0.00 | 91 | 1012.3 |
| 20260510102317 | 77 | 104 | 1.7 | 1.7 | 0.00 | 0.00 | 0.00 | 91 | 1012.1 |
| 20260510101814 | 77 | 242 | 0.9 | 0.9 | 0.00 | 0.00 | 0.00 | 91 | 1012.4 |
| 20260510101312 | 77 | 181 | 0.9 | 0.9 | 0.00 | 0.00 | 0.00 | 92 | 1011.8 |
| 20260510100808 | 77 | 142 | 0.9 | 2.6 | 0.00 | 0.00 | 0.00 | 92 | 1012.0 |
| 20260510100307 | 77 | 136 | 1.7 | 1.7 | 0.00 | 0.00 | 0.00 | 93 | 1011.8 |
| 20260510095802 | 77 | 237 | 0.9 | 0.9 | 0.00 | 0.00 | 0.00 | 93 | 1011.6 |
| 20260510095257 | 77 | 116 | 2.6 | 2.6 | 0.00 | 0.00 | 0.00 | 93 | 1011.7 |
| 20260510094756 | 77 | 102 | 1.7 | 1.7 | 0.00 | 0.00 | 0.00 | 93 | 1011.8 |
| 20260510094252 | 77 | 108 | 0.9 | 1.7 | 0.00 | 0.00 | 0.00 | 93 | 1011.7 |
| 20260510093748 | 77 | 95 | 1.7 | 1.7 | 0.00 | 0.00 | 0.00 | 93 | 1011.7 |
| 20260510093245 | 77 | 241 | 0.0 | 0.0 | 0.00 | 0.00 | 0.00 | 93 | 1011.8 |
| 20260510092741 | 77 | 257 | 0.0 | 0.0 | 0.00 | 0.00 | 0.00 | 93 | 1011.5 |
| 20260510092237 | 77 | 221 | 0.0 | 0.9 | 0.00 | 0.00 | 0.00 | 93 | 1011.6 |
| 20260510091733 | 77 | 246 | 0.0 | 0.0 | 0.00 | 0.00 | 0.00 | 92 | 1011.7 |
| 20260510091230 | 77 | 246 | 0.0 | 0.9 | 0.00 | 0.00 | 0.00 | 92 | 1011.5 |
| 20260510090726 | 77 | 247 | 0.9 | 0.9 | 0.00 | 0.00 | 0.00 | 92 | 1011.2 |
| 20260510090224 | 77 | 245 | 0.9 | 0.9 | 0.00 | 0.00 | 0.00 | 93 | 1011.4 |
| 20260510085718 | 77 | 235 | 0.9 | 0.9 | 0.00 | 0.00 | 0.00 | 93 | 1011.3 |
| 20260510085214 | 77 | 159 | 1.7 | 1.7 | 0.00 | 0.00 | 0.00 | 93 | 1011.0 |
| 20260510084710 | 77 | 229 | 0.9 | 0.9 | 0.00 | 0.00 | 0.00 | 93 | 1011.1 |
| 20260510084207 | 77 | 106 | 0.9 | 1.7 | 0.00 | 0.00 | 0.00 | 93 | 1011.3 |
| 20260510083704 | 77 | 91 | 1.7 | 4.3 | 0.00 | 0.00 | 0.00 | 93 | 1011.0 |
| 20260510083201 | 78 | 172 | 1.7 | 2.6 | 0.00 | 0.00 | 0.00 | 93 | 1010.9 |
| 20260510082656 | 78 | 197 | 2.6 | 2.6 | 0.00 | 0.00 | 0.00 | 93 | 1011.0 |
| 20260510082152 | 78 | 177 | 1.7 | 2.6 | 0.00 | 0.00 | 0.00 | 94 | 1010.9 |
| 20260510081647 | 78 | 209 | 1.7 | 2.6 | 0.00 | 0.00 | 0.00 | 94 | 1011.2 |
| 20260510081143 | 78 | 99 | 2.6 | 4.3 | 0.00 | 0.00 | 0.00 | 94 | 1011.2 |
| 20260510080642 | 79 | 209 | 0.9 | 0.9 | 0.00 | 0.00 | 0.00 | 93 | 1011.1 |
| 20260510080140 | 78 | 174 | 0.9 | 1.7 | 0.00 | 0.00 | 0.00 | 93 | 1011.0 |
| 20260510075637 | 78 | 179 | 1.7 | 2.6 | 0.00 | 0.00 | 0.00 | 93 | 1011.0 |
| 20260510075134 | 79 | 236 | 1.7 | 2.6 | 0.00 | 0.00 | 0.00 | 93 | 1011.4 |
| 20260510074631 | 79 | 109 | 3.5 | 4.3 | 0.00 | 0.00 | 0.00 | 92 | 1011.4 |
| 20260510074126 | 79 | 166 | 1.7 | 1.7 | 0.00 | 0.00 | 0.00 | 92 | 1011.2 |
| 20260510073623 | 79 | 207 | 2.6 | 2.6 | 0.00 | 0.00 | 0.00 | 92 | 1011.2 |
| 20260510073120 | 79 | 240 | 0.9 | 1.7 | 0.00 | 0.00 | 0.00 | 92 | 1011.1 |
| 20260510072616 | 79 | 231 | 0.9 | 1.7 | 0.00 | 0.00 | 0.00 | 91 | 1011.2 |
| 20260510072113 | 79 | 256 | 0.9 | 0.9 | 0.00 | 0.00 | 0.00 | 91 | 1011.3 |
| 20260510071608 | 79 | 238 | 0.9 | 0.9 | 0.00 | 0.00 | 0.00 | 91 | 1011.6 |
| 20260510071106 | 79 | 200 | 0.9 | 0.9 | 0.00 | 0.00 | 0.00 | 91 | 1011.6 |
| 20260510070603 | 79 | 231 | 0.9 | 1.7 | 0.00 | 0.00 | 0.00 | 91 | 1011.5 |
| 20260510070101 | 79 | 182 | 1.7 | 2.6 | 0.00 | 0.00 | 0.00 | 91 | 1011.7 |
| 20260510065557 | 79 | 258 | 0.0 | 0.0 | 0.00 | 0.00 | 0.00 | 91 | 1011.5 |
| 20260510065053 | 80 | 145 | 0.9 | 1.7 | 0.00 | 0.00 | 0.00 | 91 | 1011.7 |
| 20260510064549 | 80 | 197 | 1.7 | 1.7 | 0.00 | 0.00 | 0.00 | 90 | 1011.5 |
| 20260510064045 | 79 | 98 | 2.6 | 2.6 | 0.00 | 0.00 | 0.00 | 89 | 1011.6 |
| 20260510063543 | 79 | 246 | 0.0 | 0.9 | 0.00 | 0.00 | 0.00 | 88 | 1011.9 |
| 20260510063040 | 79 | 250 | 0.0 | 0.0 | 0.00 | 0.00 | 0.00 | 88 | 1012.0 |
| 20260510062536 | 79 | 249 | 0.0 | 0.0 | 0.00 | 0.00 | 0.00 | 88 | 1012.0 |
| 20260510062031 | 79 | 227 | 0.9 | 0.9 | 0.00 | 0.00 | 0.00 | 88 | 1012.0 |
| 20260510061528 | 79 | 253 | 0.0 | 0.0 | 0.00 | 0.00 | 0.00 | 87 | 1012.3 |
| 20260510061024 | 79 | 247 | 0.0 | 0.0 | 0.00 | 0.00 | 0.00 | 87 | 1012.0 |
| 20260510060521 | 79 | 256 | 0.0 | 0.0 | 0.00 | 0.00 | 0.00 | 87 | 1012.3 |
| 20260510060017 | 80 | 249 | 0.0 | 0.0 | 0.00 | 0.00 | 0.00 | 88 | 1012.4 |
| 20260510055513 | 79 | 242 | 0.0 | 0.0 | 0.00 | 0.00 | 0.00 | 87 | 1012.2 |
| 20260510055011 | 80 | 244 | 0.0 | 0.0 | 0.00 | 0.00 | 0.00 | 87 | 1012.2 |
| 20260510054507 | 80 | 247 | 0.0 | 0.0 | 0.00 | 0.00 | 0.00 | 87 | 1012.3 |
| 20260510054002 | 80 | 247 | 0.0 | 0.0 | 0.00 | 0.00 | 0.00 | 87 | 1012.5 |
| 20260510053457 | 80 | 246 | 0.0 | 0.0 | 0.00 | 0.00 | 0.00 | 87 | 1012.6 |
| 20260510052954 | 80 | 257 | 0.0 | 0.0 | 0.00 | 0.00 | 0.00 | 87 | 1012.7 |
| 20260510052450 | 79 | 257 | 0.0 | 0.0 | 0.00 | 0.00 | 0.00 | 87 | 1012.7 |
| 20260510051946 | 79 | 261 | 0.0 | 0.0 | 0.00 | 0.00 | 0.00 | 87 | 1012.7 |
| 20260510051442 | 79 | 266 | 0.0 | 0.0 | 0.00 | 0.00 | 0.00 | 87 | 1012.6 |
| 20260510050938 | 79 | 267 | 0.0 | 0.0 | 0.00 | 0.00 | 0.00 | 87 | 1012.9 |
| 20260510050435 | 79 | 267 | 0.0 | 0.0 | 0.00 | 0.00 | 0.00 | 86 | 1012.9 |
| 20260510045933 | 80 | 249 | 0.0 | 0.0 | 0.00 | 0.00 | 0.00 | 86 | 1012.7 |
| 20260510045430 | 80 | 253 | 0.0 | 0.0 | 0.00 | 0.00 | 0.00 | 86 | 1012.8 |
| 20260510044926 | 80 | 263 | 0.0 | 0.0 | 0.00 | 0.00 | 0.00 | 86 | 1012.9 |
| 20260510044424 | 80 | 258 | 0.0 | 0.0 | 0.00 | 0.00 | 0.00 | 86 | 1013.1 |
| 20260510043920 | 80 | 258 | 0.0 | 0.0 | 0.00 | 0.00 | 0.00 | 86 | 1012.8 |
| 20260510043416 | 80 | 262 | 0.0 | 0.0 | 0.00 | 0.00 | 0.00 | 85 | 1013.0 |
| 20260510042914 | 79 | 247 | 0.0 | 0.0 | 0.00 | 0.00 | 0.00 | 85 | 1012.9 |
| 20260510042410 | 79 | 268 | 0.0 | 0.0 | 0.00 | 0.00 | 0.00 | 85 | 1013.0 |
| 20260510041906 | 79 | 258 | 0.0 | 0.0 | 0.00 | 0.00 | 0.00 | 85 | 1012.8 |
| 20260510041403 | 79 | 268 | 0.0 | 0.0 | 0.00 | 0.00 | 0.00 | 85 | 1012.9 |
| 20260510040901 | 79 | 268 | 0.0 | 0.0 | 0.00 | 0.00 | 0.00 | 84 | 1013.1 |
| 20260510040358 | 79 | 268 | 0.0 | 0.0 | 0.00 | 0.00 | 0.00 | 84 | 1013.0 |
| 20260510035854 | 79 | 268 | 0.0 | 0.0 | 0.00 | 0.00 | 0.00 | 84 | 1012.7 |
| 20260510035349 | 79 | 268 | 0.0 | 0.0 | 0.00 | 0.00 | 0.00 | 84 | 1013.0 |
| 20260510034844 | 79 | 269 | 0.0 | 0.0 | 0.00 | 0.00 | 0.00 | 85 | 1012.9 |
| 20260510034343 | 79 | 231 | 0.0 | 0.0 | 0.00 | 0.00 | 0.00 | 85 | 1012.8 |
| 20260510033839 | 79 | 263 | 0.0 | 0.0 | 0.00 | 0.00 | 0.00 | 85 | 1012.9 |
| 20260510033336 | 79 | 271 | 0.0 | 0.0 | 0.00 | 0.00 | 0.00 | 86 | 1012.7 |
| 20260510032832 | 79 | 286 | 0.9 | 0.9 | 0.00 | 0.00 | 0.00 | 86 | 1012.7 |
| 20260510032329 | 79 | 269 | 0.0 | 0.0 | 0.00 | 0.00 | 0.00 | 86 | 1012.9 |
| 20260510031825 | 79 | 268 | 0.0 | 0.0 | 0.00 | 0.00 | 0.00 | 86 | 1012.6 |
| 20260510031321 | 79 | 256 | 0.0 | 0.9 | 0.00 | 0.00 | 0.00 | 86 | 1012.7 |
| 20260510030821 | 80 | 257 | 0.0 | 0.0 | 0.00 | 0.00 | 0.00 | 86 | 1012.7 |
| 20260510030317 | 80 | 252 | 0.0 | 0.0 | 0.00 | 0.00 | 0.00 | 87 | 1012.5 |
| 20260510025815 | 80 | 234 | 0.9 | 0.9 | 0.00 | 0.00 | 0.00 | 87 | 1012.7 |
| 20260510025312 | 80 | 246 | 0.0 | 0.0 | 0.00 | 0.00 | 0.00 | 87 | 1012.7 |
| 20260510024809 | 80 | 253 | 0.0 | 0.0 | 0.00 | 0.00 | 0.00 | 87 | 1012.7 |
| 20260510024306 | 80 | 266 | 0.0 | 0.0 | 0.00 | 0.00 | 0.00 | 87 | 1012.6 |
| 20260510023802 | 80 | 267 | 0.0 | 0.0 | 0.00 | 0.00 | 0.00 | 87 | 1012.7 |
| 20260510023258 | 80 | 267 | 0.0 | 0.0 | 0.00 | 0.00 | 0.00 | 87 | 1012.3 |
| 20260510022756 | 80 | 261 | 0.0 | 0.0 | 0.00 | 0.00 | 0.00 | 87 | 1012.7 |
| 20260510022255 | 80 | 262 | 0.0 | 0.0 | 0.00 | 0.00 | 0.00 | 87 | 1012.5 |
| 20260510021754 | 80 | 262 | 0.0 | 0.0 | 0.00 | 0.00 | 0.00 | 88 | 1012.5 |
| 20260510021253 | 80 | 269 | 0.0 | 0.0 | 0.00 | 0.00 | 0.00 | 88 | 1012.6 |
| 20260510020748 | 80 | 273 | 0.0 | 0.0 | 0.00 | 0.00 | 0.00 | 88 | 1012.6 |
| 20260510020248 | 80 | 266 | 0.0 | 0.0 | 0.00 | 0.00 | 0.00 | 88 | 1012.4 |
| 20260510015745 | 80 | 256 | 0.0 | 0.0 | 0.00 | 0.00 | 0.00 | 88 | 1012.5 |
| 20260510015241 | 80 | 261 | 0.0 | 0.0 | 0.00 | 0.00 | 0.00 | 88 | 1012.5 |
| 20260510014736 | 80 | 266 | 0.0 | 0.0 | 0.00 | 0.00 | 0.00 | 88 | 1012.3 |
| 20260510014234 | 80 | 262 | 0.0 | 0.0 | 0.00 | 0.00 | 0.00 | 88 | 1012.3 |
| 20260510013729 | 80 | 266 | 0.0 | 0.0 | 0.00 | 0.00 | 0.00 | 88 | 1012.4 |
| 20260510013225 | 79 | 260 | 0.0 | 0.0 | 0.00 | 0.00 | 0.00 | 88 | 1012.3 |
| 20260510012725 | 79 | 262 | 0.0 | 0.9 | 0.00 | 0.00 | 0.00 | 88 | 1012.2 |
| 20260510012221 | 79 | 267 | 0.0 | 0.0 | 0.00 | 0.00 | 0.00 | 88 | 1012.2 |
| 20260510011720 | 79 | 254 | 0.0 | 0.9 | 0.00 | 0.00 | 0.00 | 88 | 1012.4 |
| 20260510011216 | 79 | 279 | 0.9 | 0.9 | 0.00 | 0.00 | 0.00 | 88 | 1012.0 |
| 20260510010713 | 80 | 270 | 0.0 | 0.0 | 0.00 | 0.00 | 0.00 | 88 | 1011.9 |
| 20260510010209 | 80 | 271 | 0.0 | 0.9 | 0.00 | 0.00 | 0.00 | 88 | 1011.8 |
| 20260510005706 | 80 | 286 | 0.9 | 0.9 | 0.00 | 0.00 | 0.00 | 88 | 1011.9 |
| 20260510005202 | 80 | 274 | 0.0 | 0.9 | 0.00 | 0.00 | 0.00 | 88 | 1011.7 |
| 20260510004701 | 80 | 291 | 0.9 | 0.9 | 0.00 | 0.00 | 0.00 | 88 | 1011.6 |
| 20260510004159 | 80 | 280 | 0.9 | 0.9 | 0.00 | 0.00 | 0.00 | 87 | 1011.6 |
| 20260510003656 | 80 | 267 | 0.0 | 0.0 | 0.00 | 0.00 | 0.00 | 87 | 1011.6 |
| 20260510003152 | 80 | 256 | 0.0 | 0.0 | 0.00 | 0.00 | 0.00 | 87 | 1011.9 |
| 20260510002651 | 80 | 271 | 0.9 | 0.9 | 0.00 | 0.00 | 0.00 | 87 | 1011.5 |
| 20260510002149 | 80 | 271 | 0.9 | 0.9 | 0.00 | 0.00 | 0.00 | 86 | 1011.6 |
| 20260510001645 | 80 | 268 | 0.0 | 0.0 | 0.00 | 0.00 | 0.00 | 86 | 1011.4 |
| 20260510001144 | 80 | 276 | 0.9 | 0.9 | 0.00 | 0.00 | 0.00 | 86 | 1011.3 |
| 20260510000644 | 80 | 269 | 0.0 | 0.9 | 0.00 | 0.00 | 0.00 | 86 | 1011.3 |
| 20260510000142 | 80 | 237 | 0.9 | 1.7 | 0.00 | 0.00 | 0.00 | 86 | 1011.2 |
| 20260509235638 | 80 | 272 | 0.0 | 0.0 | 0.00 | 0.00 | 0.00 | 86 | 1010.9 |
| 20260509235135 | 80 | 271 | 0.0 | 0.0 | 0.00 | 0.00 | 0.00 | 86 | 1011.2 |
| 20260509234631 | 79 | 272 | 0.0 | 0.0 | 0.00 | 0.00 | 0.00 | 87 | 1010.9 |
| 20260509234129 | 80 | 309 | 0.0 | 0.9 | 0.00 | 0.00 | 0.00 | 87 | 1011.0 |
| 20260509233626 | 80 | 262 | 0.0 | 0.0 | 0.00 | 0.00 | 0.00 | 87 | 1011.0 |
| 20260509233124 | 80 | 145 | 0.0 | 1.7 | 0.00 | 0.00 | 0.00 | 86 | 1011.0 |
| 20260509232619 | 81 | 259 | 0.0 | 0.0 | 0.00 | 0.00 | 0.00 | 86 | 1010.9 |
| 20260509232117 | 81 | 281 | 3.5 | 6.1 | 0.00 | 0.00 | 0.00 | 84 | 1011.1 |
| 20260509231613 | 81 | 284 | 0.9 | 0.9 | 0.00 | 0.00 | 0.00 | 82 | 1010.8 |
| 20260509231111 | 82 | 251 | 0.9 | 0.9 | 0.00 | 0.00 | 0.00 | 82 | 1011.1 |